createdAt,value
2022-09-23T00:00:28.244Z,101834.16
2022-09-23T00:05:21.037Z,101826.31
2022-09-23T00:10:11.462Z,101831.50
2022-09-23T00:15:03.566Z,101825.41
2022-09-23T00:19:54.710Z,101821.03
2022-09-23T00:24:47.416Z,101820.13
2022-09-23T00:29:37.470Z,101824.41
2022-09-23T00:34:27.516Z,101821.75
2022-09-23T00:39:17.643Z,101818.28
2022-09-23T00:44:22.441Z,101815.63
2022-09-23T00:49:16.902Z,101806.03
2022-09-23T00:54:08.257Z,101811.16
2022-09-23T00:58:58.238Z,101806.78
2022-09-23T01:03:48.920Z,101806.72
2022-09-23T01:08:42.033Z,101801.50
2022-09-23T01:13:34.929Z,101791.94
2022-09-23T01:18:32.508Z,101792.75
2022-09-23T01:23:34.318Z,101791.00
2022-09-23T01:28:33.954Z,101787.47
2022-09-23T01:33:32.235Z,101790.94
2022-09-23T01:38:27.916Z,101786.59
2022-09-23T01:43:20.322Z,101783.06
2022-09-23T01:48:14.105Z,101782.19
2022-09-23T01:53:09.277Z,101776.97
2022-09-23T01:58:02.903Z,101773.50
2022-09-23T02:02:56.094Z,101765.72
2022-09-23T02:07:49.947Z,101767.38
2022-09-23T02:12:43.969Z,101757.00
2022-09-23T02:17:40.225Z,101758.66
2022-09-23T02:22:31.448Z,101750.84
2022-09-23T02:27:26.081Z,101740.41
2022-09-23T02:32:23.206Z,101744.69
2022-09-23T02:37:19.988Z,101729.13
2022-09-23T02:42:13.123Z,101719.63
2022-09-23T02:47:04.094Z,101728.25
2022-09-23T02:51:57.526Z,101727.34
2022-09-23T02:56:49.721Z,101722.16
2022-09-23T03:01:47.031Z,101716.97
2022-09-23T03:06:42.819Z,101715.22
2022-09-23T03:11:38.851Z,101709.16
2022-09-23T03:16:33.285Z,101704.81
2022-09-23T03:21:27.502Z,101703.97
2022-09-23T03:26:20.990Z,101699.63
2022-09-23T03:31:14.829Z,101698.78
2022-09-23T03:36:19.257Z,101699.66
2022-09-23T03:41:12.433Z,101703.06
2022-09-23T03:46:03.503Z,101702.19
2022-09-23T03:50:55.965Z,101682.34
2022-09-23T03:55:45.912Z,101682.34
2022-09-23T04:00:36.349Z,101679.75
2022-09-23T04:05:26.252Z,101674.56
2022-09-23T04:10:18.720Z,101668.50
2022-09-23T04:15:09.977Z,101661.59
2022-09-23T04:20:00.111Z,101655.56
2022-09-23T04:24:53.864Z,101649.53
2022-09-23T04:29:46.563Z,101655.63
2022-09-23T04:34:36.427Z,101653.91
2022-09-23T04:39:26.805Z,101659.94
2022-09-23T04:44:19.074Z,101656.50
2022-09-23T04:49:13.293Z,101661.63
2022-09-23T04:54:06.740Z,101659.88
2022-09-23T04:58:58.494Z,101656.44
2022-09-23T05:03:51.352Z,101656.44
2022-09-23T05:08:44.304Z,101659.88
2022-09-23T05:13:34.832Z,101663.34
2022-09-23T05:18:24.899Z,101666.72
2022-09-23T05:23:15.120Z,101663.22
2022-09-23T05:28:07.767Z,101671.91
2022-09-23T05:32:57.803Z,101673.69
2022-09-23T05:37:49.456Z,101673.59
2022-09-23T05:42:40.507Z,101671.81
2022-09-23T05:47:32.983Z,101677.88
2022-09-23T05:52:23.252Z,101676.13
2022-09-23T05:57:13.652Z,101674.38
2022-09-23T06:02:08.724Z,101678.72
2022-09-23T06:07:03.668Z,101683.94
2022-09-23T06:11:53.990Z,101680.47
2022-09-23T06:16:44.430Z,101678.78
2022-09-23T06:21:34.696Z,101677.94
2022-09-23T06:26:27.706Z,101667.66
2022-09-23T06:31:21.248Z,101671.13
2022-09-23T06:36:22.085Z,101670.28
2022-09-23T06:41:14.909Z,101664.28
2022-09-23T06:46:08.815Z,101665.19
2022-09-23T06:51:02.750Z,101660.88
2022-09-23T06:56:01.646Z,101659.22
2022-09-23T07:00:53.576Z,101660.09
2022-09-23T07:05:46.325Z,101663.63
2022-09-23T07:10:39.665Z,101666.28
2022-09-23T07:15:30.010Z,101667.16
2022-09-23T07:20:24.037Z,101673.28
2022-09-23T07:25:17.372Z,101670.75
2022-09-23T07:30:16.194Z,101666.53
2022-09-23T07:35:10.978Z,101671.84
2022-09-23T07:40:00.759Z,101669.31
2022-09-23T07:44:53.742Z,101661.63
2022-09-23T07:49:43.885Z,101655.66
2022-09-23T07:54:34.084Z,101658.31
2022-09-23T07:59:27.291Z,101654.91
2022-09-23T08:04:22.051Z,101662.78
2022-09-23T08:09:12.568Z,101662.88
2022-09-23T08:14:02.789Z,101661.25
2022-09-23T08:18:55.095Z,101667.41
2022-09-23T08:23:47.560Z,101661.41
2022-09-23T08:28:38.081Z,101673.59
2022-09-23T08:33:28.182Z,101676.25
2022-09-23T08:38:18.277Z,101670.25
2022-09-23T08:43:18.431Z,101670.28
2022-09-23T08:48:13.942Z,101662.53
2022-09-23T08:53:07.951Z,101659.97
2022-09-23T08:58:24.947Z,101667.81
2022-09-23T09:03:23.962Z,101673.91
2022-09-23T09:08:14.599Z,101663.50
2022-09-23T09:13:07.646Z,101666.94
2022-09-23T09:18:02.925Z,101664.31
2022-09-23T09:22:58.039Z,101669.50
2022-09-23T09:27:48.794Z,101666.91
2022-09-23T09:32:48.796Z,101672.97
2022-09-23T09:37:42.835Z,101664.25
2022-09-23T09:42:43.541Z,101661.66
2022-09-23T09:47:51.838Z,101665.94
2022-09-23T09:52:43.469Z,101658.94
2022-09-23T09:57:42.829Z,101658.91
2022-09-23T10:02:44.112Z,101647.59
2022-09-23T10:07:37.330Z,101634.53
2022-09-23T10:12:28.850Z,101639.72
2022-09-23T10:17:25.091Z,101637.03
2022-09-23T10:22:29.848Z,101636.13
2022-09-23T10:27:31.724Z,101633.47
2022-09-23T10:32:29.904Z,101638.56
2022-09-23T10:37:30.524Z,101627.19
2022-09-23T10:42:40.789Z,101633.22
2022-09-23T10:47:43.908Z,101630.53
2022-09-23T10:52:47.658Z,101631.38
2022-09-23T10:57:54.359Z,101640.81
2022-09-23T11:03:15.516Z,101640.66
2022-09-23T11:08:29.909Z,101630.03
2022-09-23T11:13:33.654Z,101626.38
2022-09-23T11:18:50.741Z,101628.91
2022-09-23T11:24:00.587Z,101627.09
2022-09-23T11:29:14.438Z,101621.78
2022-09-23T11:34:30.407Z,101619.97
2022-09-23T11:39:26.518Z,101609.41
2022-09-23T11:44:23.618Z,101603.97
2022-09-23T11:49:22.163Z,101599.47
2022-09-23T11:54:26.361Z,101597.72
2022-09-23T11:59:34.635Z,101594.22
2022-09-23T12:04:47.472Z,101590.75
2022-09-23T12:10:01.625Z,101586.41
2022-09-23T12:15:04.856Z,101590.78
2022-09-23T12:20:31.437Z,101586.44
2022-09-23T12:25:40.342Z,101578.59
2022-09-23T12:30:35.069Z,101572.44
2022-09-23T12:35:35.808Z,101574.03
2022-09-23T12:40:36.262Z,101577.47
2022-09-23T12:45:41.812Z,101567.03
2022-09-23T12:50:55.837Z,101569.69
2022-09-23T12:55:52.197Z,101534.94
2022-09-23T13:01:06.600Z,101565.22
2022-09-23T13:06:16.223Z,101552.13
2022-09-23T13:11:12.973Z,101559.00
2022-09-23T13:16:16.128Z,101557.19
2022-09-23T13:21:20.509Z,101558.09
2022-09-23T13:26:14.423Z,101546.84
2022-09-23T13:31:08.752Z,101535.53
2022-09-23T13:36:07.152Z,101540.69
2022-09-23T13:41:05.626Z,101535.41
2022-09-23T13:45:58.490Z,101531.81
2022-09-23T13:50:53.759Z,101519.63
2022-09-23T13:55:51.632Z,101517.91
2022-09-23T14:00:48.884Z,101516.25
2022-09-23T14:05:43.382Z,101507.63
2022-09-23T14:10:34.448Z,101504.19
2022-09-23T14:15:25.806Z,101489.38
2022-09-23T14:20:20.845Z,101491.19
2022-09-23T14:25:17.566Z,101493.78
2022-09-23T14:30:20.713Z,101492.00
2022-09-23T14:35:27.324Z,101492.03
2022-09-23T14:40:28.501Z,101498.19
2022-09-23T14:45:23.201Z,101498.34
2022-09-23T14:50:37.066Z,101487.00
2022-09-23T14:55:32.025Z,101487.97
2022-09-23T15:00:28.093Z,101487.22
2022-09-23T15:05:26.868Z,101479.47
2022-09-23T15:10:23.780Z,101476.97
2022-09-23T15:15:18.383Z,101484.84
2022-09-23T15:20:19.723Z,101469.25
2022-09-23T15:25:21.338Z,101474.59
2022-09-23T15:30:18.332Z,101461.75
2022-09-23T15:35:09.893Z,101465.38
2022-09-23T15:40:03.685Z,101461.16
2022-09-23T15:45:08.451Z,101460.38
2022-09-23T15:50:00.054Z,101453.41
2022-09-23T15:54:50.361Z,101456.03
2022-09-23T15:59:41.147Z,101455.16
2022-09-23T16:04:40.022Z,101462.16
2022-09-23T16:09:31.908Z,101459.59
2022-09-23T16:14:23.689Z,101460.56
2022-09-23T16:19:16.704Z,101453.59
2022-09-23T16:24:16.375Z,101450.16
2022-09-23T16:29:07.119Z,101447.53
2022-09-23T16:34:08.932Z,101445.81
2022-09-23T16:39:03.030Z,101444.94
2022-09-23T16:43:56.627Z,101442.34
2022-09-23T16:48:52.888Z,101441.47
2022-09-23T16:53:46.050Z,101429.41
2022-09-23T16:58:37.460Z,101439.84
2022-09-23T17:03:43.742Z,101441.59
2022-09-23T17:08:35.128Z,101445.06
2022-09-23T17:13:27.797Z,101440.75
2022-09-23T17:18:19.654Z,101442.50
2022-09-23T17:23:15.037Z,101450.41
2022-09-23T17:28:06.496Z,101452.16
2022-09-23T17:33:04.113Z,101433.97
2022-09-23T17:37:57.648Z,101447.88
2022-09-23T17:42:53.854Z,101447.00
2022-09-23T17:47:52.474Z,101434.88
2022-09-23T17:52:45.715Z,101439.25
2022-09-23T17:57:36.310Z,101432.34
2022-09-23T18:02:29.809Z,101429.81
2022-09-23T18:07:20.526Z,101435.03
2022-09-23T18:12:12.119Z,101435.94
2022-09-23T18:17:03.073Z,101430.78
2022-09-23T18:22:01.749Z,101428.28
2022-09-23T18:26:53.668Z,101449.97
2022-09-23T18:31:44.712Z,101441.31
2022-09-23T18:36:35.739Z,101430.97
2022-09-23T18:41:30.240Z,101442.22
2022-09-23T18:46:23.001Z,101447.44
2022-09-23T18:51:14.734Z,101445.75
2022-09-23T18:56:08.931Z,101449.28
2022-09-23T19:01:06.487Z,101454.50
2022-09-23T19:05:57.054Z,101450.22
2022-09-23T19:10:46.890Z,101455.44
2022-09-23T19:15:36.532Z,101445.06
2022-09-23T19:20:30.553Z,101452.00
2022-09-23T19:25:21.651Z,101446.78
2022-09-23T19:30:13.792Z,101439.03
2022-09-23T19:35:04.832Z,101445.16
2022-09-23T19:39:58.227Z,101442.53
2022-09-23T19:44:48.525Z,101439.09
2022-09-23T19:49:38.712Z,101439.16
2022-09-23T19:54:29.324Z,101439.16
2022-09-23T19:59:22.629Z,101435.72
2022-09-23T20:04:13.310Z,101426.19
2022-09-23T20:09:04.164Z,101420.16
2022-09-23T20:14:00.087Z,101414.06
2022-09-23T20:18:55.839Z,101426.22
2022-09-23T20:23:46.730Z,101421.00
2022-09-23T20:28:37.025Z,101421.03
2022-09-23T20:33:27.384Z,101414.13
2022-09-23T20:38:21.628Z,101412.41
2022-09-23T20:43:16.214Z,101415.06
2022-09-23T20:48:11.363Z,101406.38
2022-09-23T20:53:02.090Z,101402.94
2022-09-23T20:57:55.655Z,101409.03
2022-09-23T21:02:46.786Z,101409.94
2022-09-23T21:07:37.722Z,101399.56
2022-09-23T21:12:28.356Z,101406.50
2022-09-23T21:17:21.836Z,101403.88
2022-09-23T21:22:12.704Z,101397.81
2022-09-23T21:27:03.414Z,101408.25
2022-09-23T21:31:53.851Z,101407.44
2022-09-23T21:36:48.329Z,101402.25
2022-09-23T21:41:39.422Z,101398.78
2022-09-23T21:46:30.706Z,101402.28
2022-09-23T21:51:25.238Z,101402.28
2022-09-23T21:56:21.161Z,101394.53
2022-09-23T22:01:14.160Z,101400.63
2022-09-23T22:06:09.820Z,101402.38
2022-09-23T22:11:00.279Z,101398.06
2022-09-23T22:15:53.558Z,101386.81
2022-09-23T22:20:44.399Z,101388.53
2022-09-23T22:25:35.177Z,101381.63
2022-09-23T22:30:38.116Z,101379.00
2022-09-23T22:35:31.893Z,101375.53
2022-09-23T22:40:25.426Z,101377.28
2022-09-23T22:45:16.159Z,101372.94
2022-09-23T22:50:07.104Z,101362.56
2022-09-23T22:55:00.517Z,101361.72
2022-09-23T22:59:51.051Z,101360.84
2022-09-23T23:04:41.985Z,101352.16
2022-09-23T23:09:32.422Z,101342.66
2022-09-23T23:14:26.579Z,101348.72
2022-09-23T23:19:19.447Z,101344.38
2022-09-23T23:24:10.483Z,101343.53
2022-09-23T23:29:01.794Z,101335.72
2022-09-23T23:33:55.347Z,101337.47
2022-09-23T23:38:48.522Z,101337.47
2022-09-23T23:43:39.589Z,101330.53
2022-09-23T23:48:32.097Z,101325.34
2022-09-23T23:53:25.441Z,101323.63
2022-09-23T23:58:17.436Z,101327.91
